createdAt,value
2023-01-17T00:02:09.172Z,16.02
2023-01-17T00:04:56.257Z,14.02
2023-01-17T00:07:43.939Z,18.90
2023-01-17T00:10:13.383Z,11.43
2023-01-17T00:12:40.543Z,16.08
2023-01-17T00:15:08.072Z,13.85
2023-01-17T00:17:35.283Z,12.98
2023-01-17T00:20:22.206Z,12.38
2023-01-17T00:23:09.145Z,15.38
2023-01-17T00:25:57.995Z,14.55
2023-01-17T00:44:32.373Z,17.00
2023-01-17T00:47:21.572Z,14.52
2023-01-17T00:50:08.523Z,14.20
2023-01-17T00:52:55.498Z,12.98
2023-01-17T00:55:42.530Z,17.95
2023-01-17T00:58:29.860Z,14.55
2023-01-17T01:01:17.412Z,14.30
2023-01-17T01:04:04.483Z,15.23
2023-01-17T01:06:51.433Z,15.85
2023-01-17T01:09:38.449Z,24.77
2023-01-17T01:12:25.478Z,18.27
2023-01-17T01:15:12.456Z,11.60
2023-01-17T01:17:59.394Z,13.48
2023-01-17T01:20:46.422Z,16.65
2023-01-17T01:23:33.399Z,16.48
2023-01-17T01:26:22.525Z,15.30
2023-01-17T01:29:09.577Z,16.10
2023-01-17T01:31:56.535Z,14.25
2023-01-17T01:34:23.636Z,11.73
2023-01-17T01:36:50.795Z,16.98
2023-01-17T01:39:17.881Z,13.60
2023-01-17T01:41:45.042Z,15.95
2023-01-17T01:44:32.014Z,12.18
2023-01-17T01:46:59.116Z,15.20
2023-01-17T01:49:28.587Z,15.35
2023-01-17T01:51:59.886Z,13.30
2023-01-17T01:54:30.858Z,15.43
2023-01-17T01:56:58.461Z,16.02
2023-01-17T01:59:26.278Z,14.95
2023-01-17T02:01:56.332Z,15.55
2023-01-17T02:04:24.761Z,14.25
2023-01-17T02:06:56.419Z,13.38
2023-01-17T02:09:23.996Z,14.80
2023-01-17T02:11:51.111Z,13.10
2023-01-17T02:14:19.531Z,17.85
2023-01-17T02:19:45.011Z,26.50
2023-01-17T02:22:31.938Z,15.27
2023-01-17T02:27:51.239Z,14.98
2023-01-17T02:30:34.635Z,12.45
2023-01-17T02:33:06.366Z,14.57
2023-01-17T02:35:37.252Z,13.13
2023-01-17T02:40:48.035Z,14.95
2023-01-17T02:43:16.563Z,11.65
2023-01-17T02:45:43.964Z,13.35
2023-01-17T02:48:12.424Z,14.70
2023-01-17T02:50:59.368Z,14.68
2023-01-17T02:53:32.282Z,15.77
2023-01-17T02:56:05.351Z,18.70
2023-01-17T03:01:36.806Z,11.85
2023-01-17T03:04:06.994Z,13.02
2023-01-17T03:06:38.130Z,12.82
2023-01-17T03:09:05.635Z,14.77
2023-01-17T03:11:33.660Z,14.43
2023-01-17T03:14:00.834Z,11.68
2023-01-17T03:16:29.370Z,9.80
2023-01-17T03:18:56.534Z,9.48
2023-01-17T03:21:23.937Z,19.05
2023-01-17T03:23:51.343Z,9.90
2023-01-17T03:26:18.776Z,12.77
2023-01-17T03:28:46.456Z,14.35
2023-01-17T03:31:15.619Z,11.35
2023-01-17T03:33:42.860Z,14.65
2023-01-17T03:36:10.110Z,10.10
2023-01-17T03:38:37.921Z,12.70
2023-01-17T03:41:05.252Z,10.43
2023-01-17T03:43:32.332Z,11.60
2023-01-17T03:46:03.595Z,12.07
2023-01-17T03:48:31.181Z,13.73
2023-01-17T03:50:58.313Z,8.05
2023-01-17T03:53:25.894Z,10.75
2023-01-17T03:55:53.091Z,10.68
2023-01-17T03:58:20.374Z,12.43
2023-01-17T04:00:47.622Z,15.18
2023-01-17T04:03:14.742Z,11.35
2023-01-17T04:05:41.858Z,11.05
2023-01-17T04:08:09.166Z,6.90
2023-01-17T04:10:36.354Z,10.93
2023-01-17T04:13:03.546Z,10.18
2023-01-17T04:15:30.855Z,8.95
2023-01-17T04:17:58.000Z,14.88
2023-01-17T04:20:29.912Z,9.45
2023-01-17T04:22:57.734Z,10.93
2023-01-17T04:25:26.025Z,11.25
2023-01-17T04:27:53.704Z,10.02
2023-01-17T04:30:20.879Z,12.80
2023-01-17T04:32:48.190Z,13.57
2023-01-17T04:35:15.526Z,9.57
2023-01-17T04:37:44.300Z,9.82
2023-01-17T04:40:11.919Z,11.88
2023-01-17T04:42:40.008Z,12.43
2023-01-17T04:45:07.429Z,11.75
2023-01-17T04:47:35.106Z,15.15
2023-01-17T04:50:02.334Z,18.83
2023-01-17T04:52:30.773Z,10.70
2023-01-17T04:54:57.897Z,11.55
2023-01-17T04:57:25.410Z,11.70
2023-01-17T04:59:53.907Z,11.60
2023-01-17T05:02:21.179Z,9.23
2023-01-17T05:04:48.331Z,13.63
2023-01-17T05:07:15.555Z,11.60
2023-01-17T05:09:44.031Z,10.20
2023-01-17T05:12:11.149Z,12.88
2023-01-17T05:14:38.365Z,13.82
2023-01-17T05:17:05.472Z,13.50
2023-01-17T05:19:32.601Z,8.35
2023-01-17T05:22:04.356Z,24.00
2023-01-17T05:24:32.458Z,10.80
2023-01-17T05:27:03.368Z,11.55
2023-01-17T05:29:30.936Z,19.55
2023-01-17T05:31:58.137Z,10.57
2023-01-17T05:34:25.315Z,9.20
2023-01-17T05:36:52.549Z,11.02
2023-01-17T05:39:19.744Z,13.48
2023-01-17T05:41:46.863Z,14.48
2023-01-17T05:44:15.455Z,14.18
2023-01-17T05:46:42.705Z,15.80
2023-01-17T05:49:09.890Z,11.73
2023-01-17T05:51:38.161Z,10.52
2023-01-17T05:54:06.200Z,13.45
2023-01-17T05:56:34.212Z,15.13
2023-01-17T05:59:01.545Z,17.33
2023-01-17T06:01:28.752Z,9.70
2023-01-17T06:03:55.897Z,10.48
2023-01-17T06:06:23.238Z,14.65
2023-01-17T06:08:50.393Z,16.65
2023-01-17T06:11:18.908Z,11.23
2023-01-17T06:13:46.121Z,9.60
2023-01-17T06:16:13.317Z,13.30
2023-01-17T06:18:40.558Z,11.80
2023-01-17T06:21:07.720Z,12.93
2023-01-17T06:23:34.901Z,13.85
2023-01-17T06:26:02.931Z,11.27
2023-01-17T06:28:30.522Z,19.30
2023-01-17T06:30:57.724Z,14.63
2023-01-17T06:33:25.057Z,14.73
2023-01-17T06:35:53.153Z,12.85
2023-01-17T06:38:20.460Z,17.73
2023-01-17T06:40:47.768Z,17.20
2023-01-17T06:43:15.056Z,12.02
2023-01-17T06:45:42.252Z,17.58
2023-01-17T06:48:09.820Z,17.13
2023-01-17T06:50:37.247Z,13.40
2023-01-17T06:53:05.293Z,14.07
2023-01-17T06:55:34.054Z,18.48
2023-01-17T06:58:03.109Z,18.85
2023-01-17T07:00:31.223Z,16.83
2023-01-17T07:02:58.474Z,12.10
2023-01-17T07:05:25.798Z,13.07
2023-01-17T07:07:53.803Z,12.57
2023-01-17T07:10:21.522Z,15.18
2023-01-17T07:12:48.684Z,15.85
2023-01-17T07:15:15.823Z,17.58
2023-01-17T07:17:42.998Z,15.57
2023-01-17T07:20:10.472Z,20.05
2023-01-17T07:22:37.998Z,17.92
2023-01-17T07:25:05.394Z,14.90
2023-01-17T07:27:33.801Z,20.85
2023-01-17T07:30:01.140Z,16.67
2023-01-17T07:32:28.789Z,23.33
2023-01-17T07:34:57.780Z,16.58
2023-01-17T07:37:26.615Z,20.58
2023-01-17T07:39:54.797Z,25.05
2023-01-17T07:42:23.966Z,22.55
2023-01-17T07:44:51.463Z,16.10
2023-01-17T07:47:18.714Z,25.27
2023-01-17T07:49:45.927Z,30.52
2023-01-17T07:52:13.237Z,20.40
2023-01-17T07:54:41.503Z,19.77
2023-01-17T07:57:11.557Z,22.15
2023-01-17T07:59:38.731Z,19.25
2023-01-17T08:02:06.330Z,22.35
2023-01-17T08:04:35.467Z,28.75
2023-01-17T08:07:02.604Z,21.63
2023-01-17T08:09:29.816Z,23.20
2023-01-17T08:11:56.950Z,19.52
2023-01-17T08:14:24.097Z,21.88
2023-01-17T08:16:51.441Z,21.30
2023-01-17T08:19:18.765Z,20.38
2023-01-17T08:21:45.975Z,28.10
2023-01-17T08:24:14.031Z,22.92
2023-01-17T08:26:41.354Z,22.48
2023-01-17T08:29:09.468Z,18.13
2023-01-17T08:31:36.974Z,25.27
2023-01-17T08:34:04.309Z,20.40
2023-01-17T08:36:31.571Z,20.88
2023-01-17T08:38:58.827Z,23.42
2023-01-17T08:41:28.075Z,18.88
2023-01-17T08:43:55.269Z,20.25
2023-01-17T08:46:23.223Z,20.40
2023-01-17T08:48:55.941Z,22.17
2023-01-17T08:51:26.532Z,19.98
2023-01-17T08:53:53.935Z,23.77
2023-01-17T08:56:21.206Z,21.25
2023-01-17T08:58:48.457Z,20.52
2023-01-17T09:01:16.179Z,19.98
2023-01-17T09:03:43.855Z,19.30
2023-01-17T09:06:12.695Z,18.67
2023-01-17T09:08:40.113Z,24.50
2023-01-17T09:11:08.291Z,20.88
2023-01-17T09:13:35.822Z,23.33
2023-01-17T09:16:03.951Z,26.13
2023-01-17T09:18:31.774Z,19.55
2023-01-17T09:20:59.619Z,22.02
2023-01-17T09:23:27.856Z,21.58
2023-01-17T09:25:55.867Z,24.52
2023-01-17T09:28:23.482Z,22.33
2023-01-17T09:30:50.769Z,25.55
2023-01-17T09:33:18.258Z,24.70
2023-01-17T09:35:46.050Z,23.35
2023-01-17T09:38:13.220Z,20.60
2023-01-17T09:40:44.820Z,29.08
2023-01-17T09:43:17.319Z,24.65
2023-01-17T09:45:44.865Z,21.02
2023-01-17T09:48:16.880Z,25.20
2023-01-17T09:50:50.577Z,25.15
2023-01-17T09:53:21.039Z,23.05
2023-01-17T09:58:46.779Z,25.02
2023-01-17T10:01:19.476Z,24.33
2023-01-17T10:03:52.510Z,23.55
2023-01-17T10:06:30.553Z,25.27
2023-01-17T10:11:56.174Z,30.87
2023-01-17T10:17:21.433Z,21.67
2023-01-17T10:20:08.336Z,25.88
2023-01-17T10:22:55.316Z,21.52
2023-01-17T10:25:29.220Z,20.20
2023-01-17T10:27:58.711Z,26.55
2023-01-17T10:30:49.002Z,24.55
2023-01-17T10:33:19.711Z,20.77
2023-01-17T10:35:52.199Z,23.88
2023-01-17T10:38:20.939Z,19.10
2023-01-17T10:40:51.477Z,22.95
2023-01-17T10:43:30.970Z,27.63
2023-01-17T10:45:58.462Z,24.42
2023-01-17T10:51:11.973Z,22.40
2023-01-17T10:56:22.476Z,25.30
2023-01-17T10:58:50.790Z,23.25
2023-01-17T11:01:21.235Z,22.65
2023-01-17T11:03:51.798Z,23.50
2023-01-17T11:09:00.265Z,25.90
2023-01-17T11:11:32.128Z,22.20
2023-01-17T11:14:01.274Z,23.92
2023-01-17T11:16:31.562Z,23.20
2023-01-17T11:19:18.573Z,19.88
2023-01-17T11:21:54.793Z,23.30
2023-01-17T11:24:27.446Z,23.58
2023-01-17T11:26:54.634Z,22.77
2023-01-17T11:29:39.312Z,26.00
2023-01-17T11:32:26.337Z,20.65
2023-01-17T11:35:07.704Z,17.60
2023-01-17T11:37:35.647Z,21.75
2023-01-17T11:40:07.340Z,20.65
2023-01-17T11:42:37.308Z,23.05
2023-01-17T11:45:24.298Z,23.40
2023-01-17T11:48:05.500Z,19.08
2023-01-17T11:50:32.657Z,18.77
2023-01-17T11:53:18.060Z,23.45
2023-01-17T11:56:05.420Z,19.85
2023-01-17T11:58:35.076Z,20.08
2023-01-17T12:09:14.607Z,17.00
2023-01-17T12:14:31.320Z,20.70
2023-01-17T12:17:07.306Z,20.50
2023-01-17T12:27:53.564Z,23.15
2023-01-17T12:35:43.226Z,18.02
2023-01-17T12:38:27.484Z,16.73
2023-01-17T12:43:39.922Z,22.25
2023-01-17T12:46:12.863Z,22.05
2023-01-17T12:48:40.185Z,20.30
2023-01-17T12:51:18.593Z,20.52
2023-01-17T12:54:05.595Z,23.02
2023-01-17T12:56:36.092Z,19.73
2023-01-17T12:59:23.080Z,24.77
2023-01-17T13:01:57.872Z,23.40
2023-01-17T13:07:10.502Z,22.48
2023-01-17T13:09:42.680Z,20.52
2023-01-17T13:12:15.436Z,23.58
2023-01-17T13:14:42.631Z,18.05
2023-01-17T13:17:24.393Z,21.70
2023-01-17T13:20:11.491Z,19.45
2023-01-17T13:22:39.362Z,15.63
2023-01-17T13:30:50.341Z,22.25
2023-01-17T13:33:37.405Z,19.23
2023-01-17T13:36:11.949Z,23.35
2023-01-17T13:38:58.924Z,20.83
2023-01-17T13:41:45.198Z,16.40
2023-01-17T13:44:30.338Z,18.30
2023-01-17T13:49:43.071Z,20.50
2023-01-17T13:54:51.199Z,22.50
2023-01-17T14:00:22.430Z,22.92
2023-01-17T14:02:50.842Z,24.15
2023-01-17T14:05:21.456Z,25.35
2023-01-17T14:07:53.408Z,22.38
2023-01-17T14:10:27.300Z,19.90
2023-01-17T14:12:55.308Z,19.85
2023-01-17T14:15:24.320Z,21.92
2023-01-17T14:20:35.486Z,25.00
2023-01-17T14:23:03.729Z,24.42
2023-01-17T14:25:38.713Z,25.33
2023-01-17T14:28:19.424Z,23.92
2023-01-17T14:30:46.639Z,21.27
2023-01-17T14:33:19.704Z,21.27
2023-01-17T14:35:52.650Z,31.52
2023-01-17T14:38:22.506Z,17.35
2023-01-17T14:40:52.283Z,22.88
2023-01-17T14:43:21.078Z,25.15
2023-01-17T14:45:48.397Z,30.08
2023-01-17T14:50:54.688Z,22.55
2023-01-17T14:53:26.261Z,20.38
2023-01-17T14:55:56.750Z,23.70
2023-01-17T14:58:26.269Z,24.77
2023-01-17T15:00:56.504Z,23.25
2023-01-17T15:03:23.997Z,20.23
2023-01-17T15:05:52.540Z,20.60
2023-01-17T15:08:21.038Z,19.20
2023-01-17T15:13:43.728Z,21.77
2023-01-17T15:16:21.450Z,16.50
2023-01-17T15:18:48.899Z,21.52
2023-01-17T15:21:17.562Z,23.05
2023-01-17T15:23:46.856Z,19.55
2023-01-17T15:26:15.310Z,18.25
2023-01-17T15:28:42.644Z,18.88
2023-01-17T15:33:49.509Z,20.65
2023-01-17T15:38:58.784Z,18.25
2023-01-17T15:41:27.629Z,19.48
2023-01-17T15:43:57.883Z,17.17
2023-01-17T15:46:29.174Z,18.42
2023-01-17T15:49:17.606Z,15.13
2023-01-17T15:51:49.820Z,25.40
2023-01-17T15:54:34.731Z,22.08
2023-01-17T15:57:05.855Z,20.00
2023-01-17T16:10:41.258Z,22.67
2023-01-17T16:13:10.508Z,18.02
2023-01-17T16:15:38.267Z,17.42
2023-01-17T16:18:07.782Z,20.27
2023-01-17T16:23:12.611Z,15.10
2023-01-17T16:25:40.211Z,23.13
2023-01-17T16:28:07.409Z,20.42
2023-01-17T16:30:34.572Z,16.95
2023-01-17T16:33:03.038Z,16.42
2023-01-17T16:35:31.561Z,14.35
2023-01-17T16:38:00.268Z,18.10
2023-01-17T16:40:28.775Z,16.08
2023-01-17T16:42:56.351Z,18.00
2023-01-17T16:45:25.390Z,13.82
2023-01-17T16:47:53.453Z,16.67
2023-01-17T16:50:23.008Z,14.38
2023-01-17T16:52:51.282Z,22.17
2023-01-17T16:55:19.577Z,17.05
2023-01-17T16:57:46.917Z,18.42
2023-01-17T17:00:14.325Z,20.40
2023-01-17T17:02:41.898Z,16.60
2023-01-17T17:05:09.652Z,18.88
2023-01-17T17:07:42.992Z,18.73
2023-01-17T17:10:11.238Z,17.75
2023-01-17T17:12:38.455Z,17.63
2023-01-17T17:15:05.839Z,18.08
2023-01-17T17:17:37.404Z,17.65
2023-01-17T17:20:05.310Z,17.63
2023-01-17T17:22:49.466Z,13.10
2023-01-17T17:27:43.768Z,13.20
2023-01-17T17:30:12.979Z,10.18
2023-01-17T17:32:40.119Z,19.58
2023-01-17T17:35:07.501Z,11.65
2023-01-17T17:37:34.754Z,13.07
2023-01-17T17:40:01.951Z,15.48
2023-01-17T17:42:30.808Z,15.75
2023-01-17T17:44:57.952Z,14.77
2023-01-17T17:47:25.147Z,12.70
2023-01-17T17:49:52.329Z,18.00
2023-01-17T17:52:19.509Z,14.20
2023-01-17T17:54:47.964Z,16.00
2023-01-17T17:57:15.270Z,15.13
2023-01-17T17:59:42.536Z,15.70
2023-01-17T18:02:11.269Z,16.50
2023-01-17T18:04:38.634Z,13.43
2023-01-17T18:07:05.900Z,14.38
2023-01-17T18:09:33.078Z,14.50
2023-01-17T18:12:00.523Z,14.60
2023-01-17T18:14:27.649Z,14.02
2023-01-17T18:16:54.977Z,16.55
2023-01-17T18:19:23.363Z,13.07
2023-01-17T18:21:51.602Z,13.88
2023-01-17T18:24:20.218Z,17.30
2023-01-17T18:26:50.194Z,14.18
2023-01-17T18:29:18.387Z,15.27
2023-01-17T18:31:46.304Z,17.90
2023-01-17T18:34:15.098Z,17.70
2023-01-17T18:36:42.824Z,12.52
2023-01-17T18:39:12.361Z,19.92
2023-01-17T18:41:39.456Z,19.50
2023-01-17T18:44:07.158Z,13.85
2023-01-17T18:46:35.041Z,12.88
2023-01-17T18:49:02.593Z,25.65
2023-01-17T18:51:32.118Z,18.33
2023-01-17T18:54:05.919Z,13.73
2023-01-17T18:56:35.294Z,17.00
2023-01-17T18:59:03.155Z,15.25
2023-01-17T19:01:33.595Z,18.77
2023-01-17T19:04:02.844Z,20.92
2023-01-17T19:06:50.163Z,18.88
2023-01-17T19:09:17.588Z,19.10
2023-01-17T19:11:45.736Z,19.77
2023-01-17T19:14:13.228Z,19.60
2023-01-17T19:16:41.579Z,21.23
2023-01-17T19:19:10.347Z,18.50
2023-01-17T19:21:37.565Z,22.35
2023-01-17T19:24:04.917Z,18.67
2023-01-17T19:26:32.120Z,18.98
2023-01-17T19:29:00.299Z,23.58
2023-01-17T19:31:28.736Z,18.38
2023-01-17T19:33:57.733Z,15.65
2023-01-17T19:36:25.988Z,16.27
2023-01-17T19:39:03.917Z,15.77
2023-01-17T19:41:32.400Z,18.83
2023-01-17T19:44:00.719Z,17.52
2023-01-17T19:46:28.478Z,14.95
2023-01-17T19:48:56.383Z,18.98
2023-01-17T19:51:24.293Z,17.00
2023-01-17T19:53:51.500Z,14.98
2023-01-17T19:56:19.997Z,17.67
2023-01-17T19:58:47.546Z,16.23
2023-01-17T20:01:19.304Z,16.17
2023-01-17T20:03:47.368Z,19.02
2023-01-17T20:06:16.187Z,11.18
2023-01-17T20:08:43.847Z,20.45
2023-01-17T20:11:14.743Z,14.45
2023-01-17T20:13:42.461Z,13.95
2023-01-17T20:16:11.703Z,12.90
2023-01-17T20:18:39.079Z,21.65
2023-01-17T20:21:08.061Z,18.10
2023-01-17T20:23:35.841Z,15.35
2023-01-17T20:26:04.760Z,16.60
2023-01-17T20:28:33.202Z,18.48
2023-01-17T20:31:10.226Z,17.63
2023-01-17T20:33:37.424Z,15.70
2023-01-17T20:36:10.645Z,15.43
2023-01-17T20:38:46.255Z,16.52
2023-01-17T20:41:14.458Z,15.48
2023-01-17T20:43:42.342Z,17.02
2023-01-17T20:46:10.099Z,13.23
2023-01-17T20:48:39.383Z,16.48
2023-01-17T20:51:07.609Z,14.93
2023-01-17T20:53:35.743Z,15.43
2023-01-17T20:56:03.242Z,14.48
2023-01-17T20:58:31.045Z,16.17
2023-01-17T21:00:58.484Z,16.20
2023-01-17T21:03:29.543Z,12.02
2023-01-17T21:06:02.897Z,17.63
2023-01-17T21:08:30.992Z,14.75
2023-01-17T21:10:59.162Z,14.38
2023-01-17T21:13:26.776Z,14.57
2023-01-17T21:15:54.244Z,14.38
2023-01-17T21:18:22.343Z,17.58
2023-01-17T21:20:49.903Z,16.05
2023-01-17T21:23:20.382Z,19.05
2023-01-17T21:28:33.694Z,18.83
2023-01-17T21:31:01.216Z,16.35
2023-01-17T21:33:29.629Z,17.77
2023-01-17T21:36:05.636Z,16.65
2023-01-17T21:38:33.084Z,15.82
2023-01-17T21:41:00.302Z,15.95
2023-01-17T21:43:27.831Z,17.38
2023-01-17T21:45:55.044Z,16.27
2023-01-17T21:48:23.303Z,17.33
2023-01-17T21:50:52.791Z,18.20
2023-01-17T21:53:20.036Z,22.08
2023-01-17T21:56:07.182Z,20.33
2023-01-17T21:58:53.836Z,18.63
2023-01-17T22:01:22.703Z,18.45
2023-01-17T22:03:52.308Z,19.85
2023-01-17T22:06:20.333Z,20.75
2023-01-17T22:08:47.945Z,21.65
2023-01-17T22:11:16.184Z,21.77
2023-01-17T22:13:43.887Z,26.45
2023-01-17T22:16:13.828Z,21.08
2023-01-17T22:18:41.605Z,17.38
2023-01-17T22:21:11.984Z,19.85
2023-01-17T22:23:39.665Z,15.65
2023-01-17T22:26:08.394Z,19.38
2023-01-17T22:28:35.780Z,21.65
2023-01-17T22:31:09.142Z,13.60
2023-01-17T22:33:37.219Z,17.67
2023-01-17T22:36:05.256Z,18.70
2023-01-17T22:38:32.757Z,18.30
2023-01-17T22:41:02.891Z,14.93
2023-01-17T22:43:29.951Z,21.00
2023-01-17T22:46:00.477Z,18.52
2023-01-17T22:48:27.647Z,17.40
2023-01-17T22:50:59.230Z,24.48
2023-01-17T22:53:27.727Z,21.20
2023-01-17T22:56:04.715Z,20.02
2023-01-17T22:58:32.538Z,18.60
2023-01-17T23:01:08.678Z,22.88
2023-01-17T23:03:36.081Z,21.33
2023-01-17T23:06:20.765Z,23.02
2023-01-17T23:08:49.681Z,21.20
2023-01-17T23:11:39.415Z,21.52
2023-01-17T23:14:26.540Z,17.88
2023-01-17T23:17:18.317Z,21.00
2023-01-17T23:19:48.133Z,23.52
2023-01-17T23:22:19.532Z,21.55
2023-01-17T23:27:52.764Z,22.48
2023-01-17T23:30:25.831Z,22.80
2023-01-17T23:32:55.275Z,24.25
2023-01-17T23:35:24.353Z,25.85
2023-01-17T23:38:11.562Z,21.90
2023-01-17T23:40:39.055Z,22.33
2023-01-17T23:43:27.072Z,20.85
2023-01-17T23:45:54.888Z,17.88
2023-01-17T23:48:23.841Z,21.17
2023-01-17T23:50:51.065Z,19.10
2023-01-17T23:53:23.225Z,24.95
2023-01-17T23:58:17.813Z,18.27
